Merida, Venezuela
Current Conditions -  °F | °C
As of 6:00 PM on Thursday 23 Oct 2014 (Local Time) from SVMD Reporting Station
Haze Haze  
Wind Chill: 72°   Ceiling: 2000
Heat Index: 72°   Visibility: 5mi
Dew Point: 68°   Wind: 6mph
Humidity: 88%   Direction: 180°S
Pressure: 30.06"   Gusts: NA
Location:  8.4°N, 71.13°W
Report Text: SVMD 232200Z 18005KT 8000 VCBR SCT013 BKN020 22/20 Q1018
Loading
Personal Weather Stations






























Interactive Weather Map
Tropical Storm Tracking
New forecast layout! Learn more

10-Day Weather Forecast

Advertisements
Track Severe Weather on mobile